Time;durP1;ratioP1;P1;durP2;ratioP2;P2;SDS_P1;SDS_P2;PMS_P1;PMS_P2;Temp;Humidity;BMP_temperature;BMP_pressure;BME280_temperature;BME280_humidity;BME280_pressure;Samples;Min_cycle;Max_cycle;Signal;HPM_P1;HPM_P2
2021/12/03 00:00:02;;;;;;;63.17;47.33;;;;;;;15.59;67.91;101636.75;5074314;28;20052;-76
2021/12/03 00:02:28;;;;;;;60.53;47.47;;;;;;;15.49;67.74;101632.50;5075182;28;20016;-76
2021/12/03 00:04:54;;;;;;;61.10;48.30;;;;;;;15.43;68.53;101636.19;5075169;28;20032;-76
2021/12/03 00:07:21;;;;;;;56.53;44.85;;;;;;;15.34;69.09;101639.91;5074941;28;20036;-76
2021/12/03 00:09:47;;;;;;;50.58;40.08;;;;;;;15.25;69.54;101637.41;5074249;28;20020;-76
2021/12/03 00:12:13;;;;;;;46.53;35.00;;;;;;;15.14;70.16;101640.25;5074927;28;20052;-76
2021/12/03 00:14:39;;;;;;;44.67;34.05;;;;;;;15.05;70.57;101632.41;5072766;28;20487;-75
2021/12/03 00:17:05;;;;;;;47.22;32.72;;;;;;;14.94;71.24;101635.25;5074285;28;20037;-75
2021/12/03 00:19:32;;;;;;;43.63;32.38;;;;;;;14.85;71.75;101632.75;5073687;28;20094;-75
2021/12/03 00:21:58;;;;;;;44.25;32.17;;;;;;;14.73;72.65;101627.66;5074533;28;20056;-75
2021/12/03 00:24:24;;;;;;;41.88;33.38;;;;;;;14.67;72.65;101639.28;5074958;28;20473;-77
2021/12/03 00:26:50;;;;;;;47.20;31.95;;;;;;;14.58;72.76;101634.94;5074631;28;20040;-76
2021/12/03 00:29:16;;;;;;;43.80;32.33;;;;;;;14.51;72.84;101647.44;5075046;28;20104;-77
2021/12/03 00:31:42;;;;;;;49.35;33.97;;;;;;;14.41;73.50;101643.16;5074680;28;20033;-76
2021/12/03 00:34:09;;;;;;;46.88;32.67;;;;;;;14.33;73.28;101643.25;5074713;28;20080;-77
2021/12/03 00:36:35;;;;;;;47.40;32.95;;;;;;;14.23;74.14;101638.09;5074603;28;20071;-76
2021/12/03 00:39:01;;;;;;;45.50;32.90;;;;;;;14.15;74.86;101640.84;5074300;28;20350;-76
2021/12/03 00:41:33;;;;;;;44.78;32.40;;;;;;;14.05;74.81;101639.22;5074022;28;20080;-77
2021/12/03 00:43:59;;;;;;;44.10;32.92;;;;;;;13.97;74.88;101649.94;5071792;28;20101;-77
2021/12/03 00:46:25;;;;;;;49.05;32.58;;;;;;;13.88;74.93;101658.03;5073718;28;20020;-77
2021/12/03 00:48:54;;;;;;;46.22;33.72;;;;;;;13.78;74.92;101658.13;5064379;28;20433;-77
2021/12/03 00:51:22;;;;;;;44.13;33.20;;;;;;;13.67;75.01;101658.28;5059998;28;20029;-76
2021/12/03 00:53:50;;;;;;;44.55;33.42;;;;;;;13.59;75.44;101645.97;5069600;28;20082;-71
2021/12/03 00:56:17;;;;;;;48.83;34.65;;;;;;;13.49;75.45;101647.84;5074460;28;20044;-79
2021/12/03 00:58:44;;;;;;;44.25;33.70;;;;;;;13.41;75.55;101650.56;5073591;28;20054;-78
2021/12/03 01:01:10;;;;;;;51.55;34.53;;;;;;;13.32;75.97;101655.94;5069176;28;20085;-78
2021/12/03 01:03:38;;;;;;;49.45;35.13;;;;;;;13.23;76.07;101648.94;5065930;28;20057;-79
2021/12/03 01:06:05;;;;;;;53.58;36.20;;;;;;;13.17;76.32;101663.16;5057348;28;20097;-79
2021/12/03 01:08:31;;;;;;;47.90;36.95;;;;;;;13.09;76.24;101657.03;5075127;28;20039;-79
2021/12/03 01:10:58;;;;;;;54.63;38.70;;;;;;;13.01;76.32;101654.44;5073980;28;20039;-79
2021/12/03 01:13:24;;;;;;;55.97;39.42;;;;;;;12.94;76.50;101654.50;5079493;28;20448;-78
2021/12/03 01:15:50;;;;;;;60.00;40.63;;;;;;;12.83;77.17;101659.91;5074991;28;20044;-78
2021/12/03 01:18:17;;;;;;;55.20;39.63;;;;;;;12.78;77.52;101664.34;5075828;28;20044;-79
2021/12/03 01:20:44;;;;;;;46.90;33.92;;;;;;;12.69;77.71;101667.94;5072140;28;20107;-79
2021/12/03 01:23:12;;;;;;;38.00;26.10;;;;;;;12.58;78.33;101669.78;5066713;28;20024;-79
2021/12/03 01:25:39;;;;;;;26.92;16.48;;;;;;;12.52;78.15;101673.38;5072576;28;20378;-78
2021/12/03 01:28:07;;;;;;;20.67;11.25;;;;;;;12.46;78.61;101670.75;5073794;28;20098;-79
2021/12/03 01:30:33;;;;;;;19.70;9.73;;;;;;;12.40;78.49;101678.72;5083025;28;20029;-79
2021/12/03 01:33:01;;;;;;;16.65;10.10;;;;;;;12.31;78.90;101682.31;5077621;28;20024;-79
2021/12/03 01:35:29;;;;;;;15.55;9.55;;;;;;;12.19;78.98;101693.84;5077174;28;20028;-79
2021/12/03 01:37:55;;;;;;;13.77;9.38;;;;;;;12.13;79.79;101680.63;5066544;28;20048;-79
2021/12/03 01:40:24;;;;;;;18.65;9.38;;;;;;;12.07;79.95;101675.34;5077619;28;20041;-79
2021/12/03 01:42:51;;;;;;;14.20;9.27;;;;;;;11.98;81.06;101684.22;5081475;28;20048;-79
2021/12/03 01:45:25;;;;;;;20.98;9.52;;;;;;;11.95;80.66;101689.50;5068785;28;20043;-79
2021/12/03 01:47:52;;;;;;;17.60;9.55;;;;;;;11.84;80.57;101686.88;5076714;28;20040;-80
2021/12/03 01:50:27;;;;;;;18.50;9.48;;;;;;;11.79;81.37;101692.19;5076681;28;20035;-79
2021/12/03 01:52:54;;;;;;;21.40;10.82;;;;;;;11.73;80.98;101702.78;5061740;28;20127;-79
2021/12/03 01:55:20;;;;;;;17.83;9.10;;;;;;;11.65;82.17;101696.63;5060195;28;20067;-73
2021/12/03 01:57:46;;;;;;;23.13;9.80;;;;;;;11.60;81.81;101701.03;5066508;28;20481;-72
2021/12/03 02:00:21;;;;;;;16.65;9.75;;;;;;;11.55;81.88;101702.81;5090205;28;20040;-76
2021/12/03 02:02:48;;;;;;;17.85;10.02;;;;;;;11.49;83.01;101707.22;5078150;28;20021;-73
2021/12/03 02:05:14;;;;;;;17.65;9.50;;;;;;;11.44;82.65;101697.53;5078923;28;20434;-80
2021/12/03 02:07:41;;;;;;;16.25;9.82;;;;;;;11.41;83.13;101700.19;5069900;28;20484;-79
2021/12/03 02:10:08;;;;;;;20.40;10.10;;;;;;;11.34;82.78;101697.56;5071378;28;20056;-79
2021/12/03 02:12:34;;;;;;;16.13;10.35;;;;;;;11.34;83.46;101707.25;5076334;28;20024;-77
2021/12/03 02:15:01;;;;;;;18.23;10.45;;;;;;;11.34;82.89;101709.91;5073643;28;20098;-81
2021/12/03 02:17:27;;;;;;;19.15;9.73;;;;;;;11.32;83.85;101709.88;5070759;28;20028;-81
2021/12/03 02:19:54;;;;;;;15.77;9.43;;;;;;;11.30;83.94;101722.25;5074795;28;20087;-80
2021/12/03 02:22:20;;;;;;;18.10;12.07;;;;;;;11.24;84.00;101727.53;5065359;28;20033;-79
2021/12/03 02:24:46;;;;;;;20.13;11.02;;;;;;;11.18;83.45;101728.41;5077150;28;20103;-79
2021/12/03 02:27:12;;;;;;;19.83;13.05;;;;;;;11.16;83.88;101722.22;5076004;28;20036;-80
2021/12/03 02:29:38;;;;;;;21.55;12.75;;;;;;;11.14;83.93;101731.94;5075425;28;20017;-75
2021/12/03 02:32:05;;;;;;;22.02;12.27;;;;;;;11.07;83.79;101739.88;5075155;28;20063;-70
2021/12/03 02:34:31;;;;;;;22.88;13.77;;;;;;;11.03;83.66;101754.84;5085635;28;20044;-70
2021/12/03 02:36:58;;;;;;;17.38;12.65;;;;;;;10.99;83.52;101756.63;5082431;28;20353;-69
2021/12/03 02:39:24;;;;;;;20.05;12.90;;;;;;;10.92;83.70;101765.41;5075407;28;20033;-70
2021/12/03 02:41:50;;;;;;;23.85;14.18;;;;;;;10.90;84.60;101759.25;5078353;28;20067;-71
2021/12/03 02:44:17;;;;;;;22.08;13.80;;;;;;;10.82;84.61;101763.59;5077176;28;20044;-73
2021/12/03 02:46:43;;;;;;;20.15;14.07;;;;;;;10.78;85.10;101768.03;5075551;28;20047;-72
2021/12/03 02:49:13;;;;;;;27.70;14.90;;;;;;;10.84;85.19;101769.78;5075517;28;20186;-72
2021/12/03 02:51:41;;;;;;;20.80;14.02;;;;;;;10.79;85.34;101772.41;5076698;28;20350;-74
2021/12/03 02:54:08;;;;;;;24.75;15.45;;;;;;;10.81;85.61;101770.66;5070739;28;20021;-72
2021/12/03 02:56:35;;;;;;;19.80;13.38;;;;;;;10.79;84.88;101771.53;5075242;28;20024;-71
2021/12/03 02:59:01;;;;;;;;;;;;;;;10.68;85.15;101785.59;5062614;28;20047;-72
2021/12/03 03:01:27;;;;;;;18.10;12.75;;;;;;;10.66;85.26;101792.66;5063524;28;19912;-71
2021/12/03 03:03:53;;;;;;;22.50;14.48;;;;;;;10.60;84.25;101794.38;5075719;28;20032;-72
2021/12/03 03:06:20;;;;;;;25.88;14.52;;;;;;;10.53;85.42;101790.84;5074115;28;20037;-73
2021/12/03 03:08:47;;;;;;;22.38;14.88;;;;;;;10.49;84.06;101800.50;5081995;28;20099;-73
2021/12/03 03:11:16;;;;;;;26.27;15.05;;;;;;;10.39;85.35;101801.31;5074133;28;20024;-71
2021/12/03 03:13:43;;;;;;;27.38;15.48;;;;;;;10.36;86.41;101809.25;5060849;28;20035;-73
2021/12/03 03:16:10;;;;;;;30.42;17.52;;;;;;;10.34;86.95;101801.28;5071133;28;20461;-73
2021/12/03 03:18:37;;;;;;;27.80;17.42;;;;;;;10.37;87.91;101810.13;5065078;28;20106;-73
2021/12/03 03:21:04;;;;;;;;;;;;;;;10.39;88.14;101811.03;5108087;27;20036;-72
2021/12/03 03:23:32;;;;;;;29.42;17.23;;;;;;;10.40;88.27;101821.59;5068996;28;19927;-73
2021/12/03 03:25:59;;;;;;;29.02;18.40;;;;;;;10.38;88.23;101815.41;5075501;28;20032;-73
2021/12/03 03:28:26;;;;;;;30.10;19.65;;;;;;;10.39;88.42;101813.66;5071557;28;20442;-73
2021/12/03 03:30:55;;;;;;;26.85;17.67;;;;;;;10.40;88.09;101821.59;5074962;28;20420;-72
2021/12/03 03:33:22;;;;;;;32.03;19.23;;;;;;;10.35;87.88;101816.28;5075251;28;20108;-73
2021/12/03 03:35:48;;;;;;;29.60;18.92;;;;;;;10.33;87.93;101810.09;5075553;28;20054;-73
2021/12/03 03:38:15;;;;;;;30.67;19.35;;;;;;;10.32;88.38;101823.28;5072414;28;20104;-73
2021/12/03 03:40:43;;;;;;;28.60;18.63;;;;;;;10.30;88.08;101817.97;5065051;28;20450;-72
2021/12/03 03:43:09;;;;;;;30.02;18.77;;;;;;;10.30;88.56;101814.44;5066971;28;20036;-73
2021/12/03 03:45:37;;;;;;;30.83;18.27;;;;;;;10.29;88.17;101826.78;5073350;28;20469;-75
2021/12/03 03:48:04;;;;;;;26.25;17.80;;;;;;;10.27;87.98;101827.66;5069747;28;20071;-76
2021/12/03 03:50:30;;;;;;;;;;;;;;;10.24;88.58;101831.16;5073325;28;20044;-74
2021/12/03 03:52:58;;;;;;;22.23;16.38;;;;;;;10.18;88.03;101824.09;5076854;28;19920;-76
2021/12/03 03:55:25;;;;;;;32.72;18.27;;;;;;;10.16;87.88;101831.09;5073759;28;20035;-74
2021/12/03 03:57:54;;;;;;;29.35;18.85;;;;;;;10.14;88.29;101838.13;5070520;28;20025;-76
2021/12/03 04:00:30;;;;;;;28.75;18.05;;;;;;;10.13;88.26;101846.03;5055939;28;20024;-73
2021/12/03 04:02:56;;;;;;;30.50;17.45;;;;;;;10.10;88.55;101848.66;5064760;28;20020;-73
2021/12/03 04:05:22;;;;;;;27.98;17.92;;;;;;;10.06;87.90;101852.16;5072162;28;20178;-73
2021/12/03 04:07:49;;;;;;;27.13;17.80;;;;;;;10.08;89.01;101855.69;5069945;28;20028;-72
2021/12/03 04:10:15;;;;;;;32.13;20.23;;;;;;;10.07;88.47;101854.81;5071298;28;20024;-72
2021/12/03 04:12:42;;;;;;;35.40;21.02;;;;;;;10.16;89.18;101856.63;5071241;28;20106;-72
2021/12/03 04:15:11;;;;;;;31.02;20.08;;;;;;;10.10;88.43;101856.59;5066750;28;20025;-72
2021/12/03 04:17:37;;;;;;;30.35;19.77;;;;;;;10.05;87.77;101860.94;5073351;28;20477;-71
2021/12/03 04:20:07;;;;;;;35.95;21.05;;;;;;;9.99;88.20;101859.16;5104604;28;20032;-73
2021/12/03 04:22:34;;;;;;;34.78;19.60;;;;;;;9.93;88.25;101856.47;5070255;28;20044;-72
2021/12/03 04:25:04;;;;;;;36.47;20.67;;;;;;;9.87;88.51;101859.94;5072695;28;20044;-72
2021/12/03 04:27:30;;;;;;;41.17;20.25;;;;;;;9.81;87.82;101860.78;5072508;28;20017;-72
2021/12/03 04:29:56;;;;;;;36.28;20.70;;;;;;;9.78;89.14;101862.50;5072172;28;20044;-72
2021/12/03 04:32:25;;;;;;;34.58;19.63;;;;;;;9.71;88.18;101865.94;5071589;28;20041;-73
2021/12/03 04:34:53;;;;;;;33.83;18.58;;;;;;;9.63;88.34;101861.50;5069994;28;20036;-72
2021/12/03 04:37:19;;;;;;;30.98;19.35;;;;;;;9.58;88.09;101857.94;5067528;28;20043;-72
2021/12/03 04:39:45;;;;;;;34.58;19.27;;;;;;;9.54;88.13;101850.00;5067741;28;20085;-72
2021/12/03 04:42:11;;;;;;;33.92;20.05;;;;;;;9.47;88.47;101857.84;5074098;28;20028;-72
2021/12/03 04:44:38;;;;;;;35.67;19.38;;;;;;;9.43;88.24;101861.31;5068475;28;20020;-72
2021/12/03 04:47:05;;;;;;;37.90;19.85;;;;;;;9.39;87.83;101855.97;5074787;28;20028;-72
2021/12/03 04:49:32;;;;;;;35.42;19.67;;;;;;;9.32;88.14;101857.66;5072870;28;20032;-72
2021/12/03 04:51:58;;;;;;;38.55;20.75;;;;;;;9.26;88.42;101860.25;5071170;28;20035;-71
2021/12/03 04:54:26;;;;;;;42.67;19.70;;;;;;;9.22;88.68;101853.16;5072462;28;20401;-72
2021/12/03 04:56:53;;;;;;;42.25;21.05;;;;;;;9.20;89.06;101860.19;5071261;28;20059;-72
2021/12/03 04:59:19;;;;;;;35.83;19.35;;;;;;;9.12;88.30;101857.47;5070934;28;20464;-73
2021/12/03 05:01:46;;;;;;;40.70;19.98;;;;;;;9.12;89.45;101857.47;5068929;28;20036;-72
2021/12/03 05:04:12;;;;;;;42.13;20.13;;;;;;;9.05;88.69;101867.06;5069723;28;20040;-72
2021/12/03 05:07:05;;;;;;;44.33;20.02;;;;;;;8.99;88.30;101869.59;5071906;28;20092;-72
2021/12/03 05:09:32;;;;;;;38.20;19.15;;;;;;;8.88;87.98;101868.63;5063147;28;20428;-72
2021/12/03 05:11:59;;;;;;;39.75;18.13;;;;;;;8.82;88.02;101878.22;5061905;28;20147;-71
2021/12/03 05:14:25;;;;;;;35.90;18.15;;;;;;;8.77;87.69;101869.34;5076212;28;20086;-72
2021/12/03 05:16:52;;;;;;;42.85;20.00;;;;;;;8.73;88.36;101869.31;5077252;28;20718;-70
2021/12/03 05:19:18;;;;;;;41.83;19.55;;;;;;;8.67;87.93;101878.00;5078941;28;20037;-72
2021/12/03 05:21:45;;;;;;;46.58;19.75;;;;;;;8.61;87.81;101878.81;5078351;28;20043;-71
2021/12/03 05:24:13;;;;;;;46.85;19.83;;;;;;;8.57;88.28;101878.72;5077232;28;20024;-71
2021/12/03 05:26:40;;;;;;;42.83;19.92;;;;;;;8.52;88.00;101883.94;5073381;28;20474;-72
2021/12/03 05:29:08;;;;;;;41.10;18.75;;;;;;;8.45;87.72;101882.97;5072786;28;20075;-71
2021/12/03 05:31:36;;;;;;;43.45;21.45;;;;;;;8.38;87.60;101886.34;5076472;28;20036;-71
2021/12/03 05:34:09;;;;;;;52.53;21.90;;;;;;;8.34;88.08;101889.78;5071527;28;20028;-72
2021/12/03 05:36:36;;;;;;;43.83;19.52;;;;;;;8.26;88.02;101880.91;5074945;28;20399;-71
2021/12/03 05:39:02;;;;;;;46.63;20.58;;;;;;;8.24;87.89;101886.16;5080252;28;20473;-72
2021/12/03 05:41:29;;;;;;;44.33;21.27;;;;;;;8.16;88.14;101893.94;5076573;28;20024;-71
2021/12/03 05:43:55;;;;;;;49.72;20.65;;;;;;;8.11;87.74;101886.81;5074256;28;20032;-72
2021/12/03 05:46:21;;;;;;;49.95;21.17;;;;;;;8.07;88.24;101892.91;5060855;28;20032;-72
2021/12/03 05:48:47;;;;;;;51.45;21.45;;;;;;;8.02;88.36;101896.34;5056779;28;20090;-71
2021/12/03 05:51:13;;;;;;;49.92;20.65;;;;;;;7.97;88.25;101900.66;5057706;28;20025;-71
2021/12/03 05:53:40;;;;;;;51.28;20.75;;;;;;;7.92;88.68;101886.53;5071736;28;20043;-71
2021/12/03 05:56:06;;;;;;;40.25;20.45;;;;;;;7.84;88.34;101889.03;5078035;28;20468;-72
2021/12/03 05:58:32;;;;;;;47.45;21.30;;;;;;;7.81;88.20;101883.72;5075120;28;20227;-72
2021/12/03 06:00:58;;;;;;;46.90;19.65;;;;;;;7.76;88.61;101889.75;5077501;28;20017;-71
2021/12/03 06:03:25;;;;;;;47.13;21.13;;;;;;;7.73;88.33;101889.69;5075978;28;20409;-71
2021/12/03 06:05:52;;;;;;;47.88;20.75;;;;;;;7.66;88.46;101889.59;5078388;28;20029;-71
2021/12/03 06:08:18;;;;;;;55.72;22.13;;;;;;;7.63;88.31;101889.53;5064348;28;20031;-71
2021/12/03 06:10:45;;;;;;;48.47;20.92;;;;;;;7.58;88.27;101887.69;5077123;28;20048;-71
2021/12/03 06:13:11;;;;;;;47.85;20.83;;;;;;;7.55;88.30;101885.91;5076071;28;20071;-69
2021/12/03 06:15:37;;;;;;;45.05;20.13;;;;;;;7.49;88.39;101897.19;5070631;28;20032;-72
2021/12/03 06:18:03;;;;;;;48.25;19.30;;;;;;;7.45;88.81;101897.09;5059088;28;20028;-72
2021/12/03 06:20:29;;;;;;;54.60;21.70;;;;;;;7.42;88.60;101902.31;5058539;28;20064;-72
2021/12/03 06:22:56;;;;;;;57.72;21.50;;;;;;;7.39;88.82;101883.81;5074391;28;20033;-72
2021/12/03 06:25:22;;;;;;;50.13;22.15;;;;;;;7.38;88.69;101887.34;5076925;28;20040;-72
2021/12/03 06:27:49;;;;;;;53.80;22.10;;;;;;;7.31;88.69;101886.34;5076453;28;20110;-72
2021/12/03 06:30:19;;;;;;;53.13;23.08;;;;;;;7.28;88.99;101883.63;5082941;28;20020;-72
2021/12/03 06:32:47;;;;;;;73.57;27.67;;;;;;;7.25;88.83;101897.59;5086506;28;20035;-71
2021/12/03 06:35:15;;;;;;;65.70;27.85;;;;;;;7.24;89.40;101900.19;5071906;28;20081;-72
2021/12/03 06:37:42;;;;;;;74.20;29.05;;;;;;;7.23;89.78;101899.34;5065450;28;20028;-71
2021/12/03 06:40:12;;;;;;;66.95;29.25;;;;;;;7.20;89.67;101898.38;5085471;28;20032;-72
2021/12/03 06:42:38;;;;;;;77.50;28.85;;;;;;;7.18;89.71;101903.59;5080616;28;20039;-72
2021/12/03 06:45:06;;;;;;;68.93;29.38;;;;;;;7.15;89.92;101896.53;5079823;28;20026;-73
2021/12/03 06:47:32;;;;;;;78.00;30.25;;;;;;;7.13;89.78;101902.63;5090518;28;20473;-73
2021/12/03 06:49:58;;;;;;;;;;;;;;;7.12;89.85;101903.47;5080558;28;20021;-72
2021/12/03 06:52:25;;;;;;;76.95;28.75;;;;;;;7.09;89.53;101903.41;5076085;28;19916;-72
2021/12/03 06:54:57;;;;;;;82.07;29.38;;;;;;;7.07;89.36;101897.22;5084929;28;20029;-73
2021/12/03 06:57:23;;;;;;;86.85;32.65;;;;;;;7.07;90.10;101900.78;5074736;28;20090;-72
2021/12/03 06:59:49;;;;;;;91.72;35.45;;;;;;;7.15;90.22;101914.06;5080556;28;20446;-72
2021/12/03 07:02:15;;;;;;;100.75;37.17;;;;;;;7.23;91.19;101909.84;5087404;28;20051;-72
2021/12/03 07:04:44;;;;;;;114.13;37.83;;;;;;;7.32;91.18;101909.13;5080358;28;20469;-72
2021/12/03 07:07:11;;;;;;;103.97;38.22;;;;;;;7.45;91.52;101910.25;5096436;28;20047;-72
2021/12/03 07:09:37;;;;;;;104.60;38.75;;;;;;;7.55;91.88;101903.44;5076760;28;20048;-72
2021/12/03 07:12:04;;;;;;;113.38;39.33;;;;;;;7.65;91.79;101898.38;5061572;28;20032;-72
2021/12/03 07:14:30;;;;;;;112.13;41.35;;;;;;;7.76;92.19;101902.91;5076309;28;20024;-72
2021/12/03 07:17:05;;;;;;;110.22;40.20;;;;;;;7.84;92.14;101885.53;5077311;28;20355;-72
2021/12/03 07:19:31;;;;;;;110.25;39.90;;;;;;;7.94;92.38;101897.06;5087487;28;20454;-72
2021/12/03 07:21:57;;;;;;;108.57;39.30;;;;;;;8.01;92.38;101897.22;5075771;28;20043;-72
2021/12/03 07:24:23;;;;;;;103.20;38.47;;;;;;;8.10;92.63;101900.84;5072623;28;20040;-72
2021/12/03 07:26:49;;;;;;;113.35;39.97;;;;;;;8.18;92.48;101904.47;5086823;28;20094;-72
2021/12/03 07:29:16;;;;;;;111.57;41.80;;;;;;;8.25;92.33;101906.34;5071461;28;20474;-73
2021/12/03 07:31:42;;;;;;;117.78;42.42;;;;;;;8.37;92.55;101900.41;5073304;28;20036;-72
2021/12/03 07:34:10;;;;;;;114.95;42.45;;;;;;;8.45;92.51;101898.78;5078318;28;20124;-72
2021/12/03 07:36:37;;;;;;;123.78;44.67;;;;;;;8.56;92.11;101891.03;5078933;28;20050;-73
2021/12/03 07:39:04;;;;;;;126.50;47.83;;;;;;;8.63;92.60;101898.16;5077514;28;20067;-72
2021/12/03 07:41:30;;;;;;;134.90;49.38;;;;;;;8.72;92.34;101885.97;5088402;28;20369;-72
2021/12/03 07:43:56;;;;;;;143.68;49.83;;;;;;;8.79;92.75;101879.91;5082177;28;20449;-73
2021/12/03 07:46:22;;;;;;;135.05;49.38;;;;;;;8.84;92.59;101881.72;5080789;28;20055;-72
2021/12/03 07:48:50;;;;;;;132.95;48.08;;;;;;;8.89;92.57;101879.16;5079446;28;20417;-72
2021/12/03 07:51:19;;;;;;;137.32;48.83;;;;;;;8.95;92.09;101881.88;5075350;28;20024;-72
2021/12/03 07:53:45;;;;;;;140.35;50.03;;;;;;;9.01;91.83;101884.56;5081431;28;20473;-73
2021/12/03 07:56:11;;;;;;;132.15;47.67;;;;;;;9.08;91.55;101879.38;5071427;28;20024;-72
2021/12/03 07:58:38;;;;;;;137.18;50.38;;;;;;;9.12;91.73;101883.81;5077371;28;20449;-72
2021/12/03 08:01:04;;;;;;;;;;;;;;;9.17;91.76;101879.50;5080633;28;20060;-72
2021/12/03 08:03:30;;;;;;;130.50;48.75;;;;;;;9.23;91.97;101879.56;5114427;27;19912;-71
2021/12/03 08:05:59;;;;;;;138.50;50.60;;;;;;;9.27;91.68;101888.38;5071989;28;20105;-72
2021/12/03 08:08:26;;;;;;;146.10;51.40;;;;;;;9.34;91.84;101888.47;5068072;28;20025;-72
2021/12/03 08:10:55;;;;;;;155.68;52.47;;;;;;;9.39;91.95;101890.25;5070826;28;20477;-72
2021/12/03 08:13:21;;;;;;;164.43;54.05;;;;;;;9.44;91.71;101880.66;5076104;28;20043;-71
2021/12/03 08:15:47;;;;;;;176.05;55.63;;;;;;;9.50;91.85;101886.00;5059286;28;20024;-71
2021/12/03 08:18:14;;;;;;;176.35;56.35;;;;;;;9.55;91.77;101881.66;5079941;28;20028;-72
2021/12/03 08:20:40;;;;;;;164.52;53.75;;;;;;;9.60;91.43;101876.41;5080398;28;20027;-71
2021/12/03 08:23:07;;;;;;;160.93;51.55;;;;;;;9.65;91.85;101879.97;5075125;28;20025;-71
2021/12/03 08:25:33;;;;;;;148.07;51.38;;;;;;;9.68;91.82;101880.00;5084427;28;20032;-71
2021/12/03 08:27:59;;;;;;;137.65;48.30;;;;;;;9.70;91.41;101878.25;5079514;28;20024;-71
2021/12/03 08:30:29;;;;;;;134.57;48.25;;;;;;;9.75;91.26;101880.94;5075176;28;20028;-72
2021/12/03 08:32:57;;;;;;;136.05;48.15;;;;;;;9.78;91.66;101886.25;5088915;28;20020;-72
2021/12/03 08:35:23;;;;;;;149.05;49.03;;;;;;;9.81;90.67;101888.91;5071810;28;20055;-72
2021/12/03 08:37:50;;;;;;;158.20;48.88;;;;;;;9.84;90.78;101879.28;5071716;28;20462;-72
2021/12/03 08:40:17;;;;;;;143.90;45.35;;;;;;;9.88;90.98;101887.19;5073761;28;20454;-71
2021/12/03 08:42:44;;;;;;;159.88;47.45;;;;;;;9.91;91.16;101888.13;5076856;28;20012;-72
2021/12/03 08:45:16;;;;;;;144.13;45.85;;;;;;;9.94;90.79;101890.78;5075498;28;20347;-72
2021/12/03 08:47:44;;;;;;;142.40;43.22;;;;;;;9.96;91.22;101889.06;5059389;28;20369;-72
2021/12/03 08:50:17;;;;;;;132.15;42.72;;;;;;;9.99;90.84;101891.69;5087136;28;20020;-72
2021/12/03 08:55:12;;;;;;;125.40;39.83;;;;;;;10.04;91.40;101890.84;5065251;28;20128;-72
2021/12/03 08:57:38;;;;;;;123.93;38.13;;;;;;;10.04;90.45;101886.47;5088885;28;20028;-72
2021/12/03 09:00:12;;;;;;;123.07;36.05;;;;;;;10.06;90.67;101890.00;5074483;28;20039;-72
2021/12/03 09:02:39;;;;;;;126.30;37.55;;;;;;;10.07;90.45;101891.75;5073784;28;20028;-72
2021/12/03 09:05:07;;;;;;;121.07;37.33;;;;;;;10.10;90.12;101890.91;5080959;28;20031;-72
2021/12/03 09:07:34;;;;;;;127.50;38.33;;;;;;;10.11;90.14;101892.69;5082723;28;20024;-72
2021/12/03 09:10:00;;;;;;;112.45;36.33;;;;;;;10.09;89.96;101882.13;5073631;28;20020;-72
2021/12/03 09:12:26;;;;;;;112.10;35.28;;;;;;;10.10;90.06;101883.00;5072905;28;20035;-72
2021/12/03 09:14:55;;;;;;;110.88;33.72;;;;;;;10.10;90.39;101885.63;5075097;28;20452;-72
2021/12/03 09:22:41;;;;;;;106.45;31.85;;;;;;;10.15;90.06;101892.69;5070648;28;20381;-72
2021/12/03 09:25:13;;;;;;;101.25;32.22;;;;;;;10.18;89.74;101889.19;5081678;28;20016;-72
2021/12/03 09:27:40;;;;;;;96.18;29.48;;;;;;;10.17;89.30;101895.34;5077893;28;20053;-71
2021/12/03 09:30:09;;;;;;;96.88;29.77;;;;;;;10.17;89.59;101895.34;5076703;28;20024;-71
2021/12/03 09:32:35;;;;;;;94.93;28.92;;;;;;;10.16;89.24;101894.47;5074750;28;20071;-71
2021/12/03 09:35:03;;;;;;;;;;;;;;;10.14;89.40;101909.41;5084030;28;20020;-71
2021/12/03 09:37:29;;;;;;;85.03;27.43;;;;;;;10.12;89.59;101905.00;5061786;28;20329;-71
2021/12/03 09:40:01;;;;;;;91.47;27.40;;;;;;;10.13;89.17;101899.75;5087363;28;20037;-72
2021/12/03 09:42:27;;;;;;;91.35;28.48;;;;;;;10.12;89.27;101891.78;5083275;28;20028;-71
2021/12/03 09:44:54;;;;;;;84.95;26.88;;;;;;;10.15;89.10;101891.84;5076225;28;20322;-71
2021/12/03 09:47:20;;;;;;;77.78;26.17;;;;;;;10.16;89.50;101890.97;5075775;28;20032;-71
2021/12/03 09:49:53;;;;;;;74.65;25.48;;;;;;;10.17;89.42;101898.91;5087394;28;20024;-71
2021/12/03 09:55:14;;;;;;;71.88;22.65;;;;;;;10.18;88.87;101897.13;5070517;28;20096;-71
2021/12/03 09:57:53;;;;;;;61.85;21.65;;;;;;;10.17;89.15;101895.34;5076059;28;20048;-71
2021/12/03 10:00:32;;;;;;;51.30;20.65;;;;;;;10.15;88.46;101900.63;5082645;28;20024;-71
2021/12/03 10:11:52;;;;;;;53.45;19.80;;;;;;;10.18;88.01;101889.19;5080272;28;20040;-72
2021/12/03 10:14:35;;;;;;;49.35;18.77;;;;;;;10.19;88.46;101901.53;5093013;28;20059;-72
2021/12/03 10:22:53;;;;;;;53.97;19.02;;;;;;;10.24;88.43;101891.91;5078360;28;20036;-72
2021/12/03 10:41:39;;;;;;;68.07;22.42;;;;;;;10.26;88.00;101894.53;5097117;28;20121;-72
2021/12/03 10:50:05;;;;;;;63.35;23.55;;;;;;;10.24;87.77;101891.91;5084479;28;20474;-73
2021/12/03 10:52:51;;;;;;;82.22;24.58;;;;;;;10.26;88.30;101886.63;5082701;28;20118;-72
2021/12/03 11:02:21;;;;;;;80.78;24.98;;;;;;;10.27;88.00;101878.69;5074785;28;20055;-73
2021/12/03 11:07:28;;;;;;;76.00;24.67;;;;;;;10.30;88.43;101873.44;5090712;28;20047;-72
2021/12/03 11:13:11;;;;;;;78.05;27.02;;;;;;;10.30;88.03;101870.78;5083560;28;20097;-72
2021/12/03 11:19:02;;;;;;;87.07;27.33;;;;;;;10.28;88.68;101869.03;5045160;23;20070;-82
2021/12/03 11:41:15;;;;;;;85.25;27.80;;;;;;;10.38;87.97;101860.31;5007639;28;20422;-82
2021/12/03 11:44:44;;;;;;;91.78;30.13;;;;;;;10.42;88.60;101856.81;4999992;28;20431;-82
2021/12/03 11:58:59;;;;;;;86.57;31.40;;;;;;;10.45;88.31;101846.28;5003136;28;20144;-82
2021/12/03 12:34:37;;;;;;;92.55;31.27;;;;;;;10.54;88.55;101842.78;4997700;28;20027;-82
2021/12/03 12:40:14;;;;;;;78.95;28.60;;;;;;;10.54;88.32;101848.06;4975945;28;20117;-82
2021/12/03 14:00:49;;;;;;;19.55;11.60;;;;;;;10.17;87.52;101884.78;4999717;28;20530;-82
2021/12/03 14:12:16;;;;;;;20.48;12.57;;;;;;;10.18;86.41;101902.41;4992175;28;20077;-82
2021/12/03 14:15:28;;;;;;;24.15;12.93;;;;;;;10.20;86.78;101903.31;4990629;28;20030;-82
2021/12/03 14:37:53;;;;;;;24.20;15.80;;;;;;;10.20;87.14;101911.25;5005128;28;20094;-82
2021/12/03 14:43:25;;;;;;;24.92;13.80;;;;;;;10.21;87.23;101905.06;5004460;28;20031;-82
2021/12/03 14:46:13;;;;;;;25.90;14.52;;;;;;;10.22;87.04;101906.84;5002447;28;20094;-82
2021/12/03 14:51:28;;;;;;;26.27;16.17;;;;;;;10.20;87.24;101913.88;5005214;28;20361;-82
2021/12/03 14:54:28;;;;;;;32.40;17.88;;;;;;;10.21;86.92;101907.69;5020571;28;20041;-82
2021/12/03 14:57:30;;;;;;;32.75;16.98;;;;;;;10.26;87.57;101915.66;4983552;28;20034;-83
2021/12/03 16:08:30;;;;;;;59.70;28.20;;;;;;;10.66;86.91;101940.63;4988533;28;20041;-74
2021/12/03 16:53:35;;;;;;;24.33;15.45;;;;;;;10.78;83.92;101971.53;4976436;28;20037;-72
2021/12/03 16:56:12;;;;;;;29.38;16.10;;;;;;;10.77;84.16;101976.78;4984891;28;20061;-70
2021/12/03 16:58:41;;;;;;;29.05;16.17;;;;;;;10.77;84.11;101972.41;4975753;28;20050;-70
2021/12/03 17:01:57;;;;;;;29.25;16.73;;;;;;;10.79;84.30;101977.69;4974629;28;20041;-70
2021/12/03 17:04:18;;;;;;;26.55;15.57;;;;;;;10.81;84.04;101976.84;4971019;28;20061;-70
2021/12/03 17:17:43;;;;;;;31.05;18.70;;;;;;;10.95;84.28;101982.19;4973993;28;20114;-70
2021/12/03 17:50:05;;;;;;;32.75;17.88;;;;;;;11.53;81.55;101975.38;4969687;28;20103;-76
2021/12/03 18:00:38;;;;;;;29.83;16.85;;;;;;;11.62;81.19;101972.78;4973876;28;20475;-67